createdAt,value
2022-10-28T00:09:33.367Z,13.35
2022-10-28T00:19:35.611Z,13.28
2022-10-28T00:29:37.886Z,13.22
2022-10-28T00:39:40.090Z,13.10
2022-10-28T00:49:43.296Z,12.96
2022-10-28T00:59:50.442Z,12.91
2022-10-28T01:09:53.008Z,12.84
2022-10-28T01:20:23.009Z,12.81
2022-10-28T01:30:28.146Z,12.76
2022-10-28T01:40:43.763Z,12.65
2022-10-28T01:51:00.526Z,12.52
2022-10-28T02:01:06.872Z,12.41
2022-10-28T02:11:39.952Z,12.33
2022-10-28T02:22:15.638Z,12.25
2022-10-28T02:32:25.303Z,12.16
2022-10-28T02:42:50.934Z,12.16
2022-10-28T02:52:59.299Z,12.01
2022-10-28T03:03:01.552Z,11.94
2022-10-28T03:13:03.829Z,11.95
2022-10-28T03:23:06.046Z,11.82
2022-10-28T03:33:09.267Z,11.77
2022-10-28T03:43:11.536Z,11.77
2022-10-28T03:53:13.959Z,11.85
2022-10-28T04:03:17.375Z,11.96
2022-10-28T04:13:19.664Z,12.06
2022-10-28T04:23:23.860Z,12.16
2022-10-28T04:33:26.083Z,12.30
2022-10-28T04:43:28.500Z,12.50
2022-10-28T04:53:30.828Z,12.58
2022-10-28T05:03:35.113Z,12.60
2022-10-28T05:13:37.460Z,12.57
2022-10-28T05:23:39.890Z,12.50
2022-10-28T05:33:42.284Z,12.54
2022-10-28T05:43:44.556Z,12.64
2022-10-28T05:53:52.063Z,12.53
2022-10-28T06:03:54.930Z,12.38
2022-10-28T06:13:56.067Z,12.49
2022-10-28T06:23:58.626Z,12.63
2022-10-28T06:34:01.818Z,12.77
2022-10-28T06:44:04.514Z,12.86
2022-10-28T06:54:09.091Z,12.93
2022-10-28T07:04:14.619Z,13.04
2022-10-28T07:14:18.087Z,13.22
2022-10-28T07:24:21.087Z,13.41
2022-10-28T07:34:41.901Z,13.52
2022-10-28T07:44:46.729Z,13.65
2022-10-28T07:54:52.913Z,14.00
2022-10-28T08:04:57.540Z,14.32
2022-10-28T08:15:07.069Z,14.51
2022-10-28T08:25:11.329Z,14.66
2022-10-28T08:35:14.962Z,14.62
2022-10-28T08:45:27.258Z,14.86
2022-10-28T08:55:42.575Z,15.23
2022-10-28T09:05:53.013Z,15.59
2022-10-28T09:16:09.398Z,15.94
2022-10-28T09:26:53.550Z,16.20
2022-10-28T09:37:16.175Z,16.36
2022-10-28T09:47:32.056Z,16.47
2022-10-28T09:57:45.145Z,16.84
2022-10-28T10:08:00.597Z,17.19
2022-10-28T10:18:53.685Z,17.66
2022-10-28T10:29:01.076Z,17.95
2022-10-28T10:39:06.040Z,17.91
2022-10-28T10:49:21.798Z,17.70
2022-10-28T10:59:32.054Z,17.85
2022-10-28T11:09:44.790Z,18.19
2022-10-28T11:19:50.137Z,18.63
2022-10-28T11:30:03.642Z,18.89
2022-10-28T11:40:25.961Z,19.12
2022-10-28T11:50:29.954Z,19.57
2022-10-28T12:00:32.889Z,19.71
2022-10-28T12:10:54.882Z,19.91
2022-10-28T12:21:21.021Z,20.22
2022-10-28T12:31:40.972Z,20.40
2022-10-28T12:41:46.727Z,20.74
2022-10-28T12:51:52.091Z,21.06
2022-10-28T13:02:01.576Z,21.24
2022-10-28T13:12:25.339Z,21.11
2022-10-28T13:22:56.585Z,20.99
2022-10-28T13:33:07.799Z,20.90
2022-10-28T13:43:22.096Z,20.64
2022-10-28T13:53:24.706Z,20.47
2022-10-28T14:03:29.111Z,20.26
2022-10-28T14:13:36.706Z,20.10
2022-10-28T14:23:47.340Z,20.21
2022-10-28T14:34:15.468Z,20.39
2022-10-28T14:44:38.817Z,20.29
2022-10-28T14:54:52.032Z,20.05
2022-10-28T15:05:12.582Z,19.83
2022-10-28T15:15:28.038Z,19.50
2022-10-28T15:25:30.594Z,19.11
2022-10-28T15:35:38.635Z,18.74
2022-10-28T15:45:42.724Z,18.37
2022-10-28T16:06:31.232Z,17.60
2022-10-28T16:16:34.016Z,17.15
2022-10-28T16:26:36.903Z,16.69
2022-10-28T16:36:39.521Z,16.28
2022-10-28T16:46:42.000Z,15.93
2022-10-28T16:56:44.792Z,15.61
2022-10-28T17:06:47.417Z,15.30
2022-10-28T17:16:50.480Z,15.05
2022-10-28T17:26:53.755Z,14.79
2022-10-28T17:36:56.326Z,14.58
2022-10-28T17:46:59.104Z,14.40
2022-10-28T17:57:02.112Z,14.21
2022-10-28T18:07:05.092Z,14.03
2022-10-28T18:17:07.637Z,13.89
2022-10-28T18:27:10.170Z,13.75
2022-10-28T18:37:12.837Z,13.66
2022-10-28T18:47:15.549Z,13.54
2022-10-28T18:57:19.551Z,13.40
2022-10-28T19:07:22.012Z,13.30
2022-10-28T19:17:24.414Z,13.15
2022-10-28T19:27:27.160Z,13.09
2022-10-28T19:37:29.749Z,12.97
2022-10-28T19:47:32.853Z,12.86
2022-10-28T19:57:35.712Z,12.75
2022-10-28T20:07:38.126Z,12.69
2022-10-28T20:17:40.737Z,12.57
2022-10-28T20:27:43.255Z,12.47
2022-10-28T20:37:45.945Z,12.44
2022-10-28T20:47:48.478Z,12.43
2022-10-28T20:57:50.841Z,12.39
2022-10-28T21:07:55.176Z,12.30
2022-10-28T21:17:58.180Z,12.26
2022-10-28T21:28:01.083Z,12.19
2022-10-28T21:38:04.055Z,12.16
2022-10-28T21:48:06.999Z,12.13
2022-10-28T21:58:09.532Z,12.10
2022-10-28T22:08:12.632Z,12.03
2022-10-28T22:18:15.868Z,11.99
2022-10-28T22:28:18.578Z,12.01
2022-10-28T22:38:20.897Z,12.06
2022-10-28T22:48:24.056Z,12.16
2022-10-28T22:58:28.069Z,12.20
2022-10-28T23:08:31.279Z,12.12
2022-10-28T23:18:34.161Z,12.03
2022-10-28T23:28:36.621Z,11.97
2022-10-28T23:38:39.373Z,11.92
2022-10-28T23:48:41.661Z,11.78
2022-10-28T23:58:44.099Z,11.61
